sensor_id;sensor_type;location;lat;lon;timestamp;pressure;altitude;pressure_sealevel;temperature;humidity
7058;BME280;3570;43.080;25.628;2022-08-11T00:01:48;-20105.13;;;22.45;78.35
7058;BME280;3570;43.080;25.628;2022-08-11T00:04:35;-20100.34;;;22.29;79.45
7058;BME280;3570;43.080;25.628;2022-08-11T00:07:20;-20103.81;;;22.41;79.37
7058;BME280;3570;43.080;25.628;2022-08-11T00:10:09;-20101.06;;;22.31;80.31
7058;BME280;3570;43.080;25.628;2022-08-11T00:13:04;-20097.88;;;22.20;81.13
7058;BME280;3570;43.080;25.628;2022-08-11T00:15:50;-20097.88;;;22.20;81.97
7058;BME280;3570;43.080;25.628;2022-08-11T00:18:58;-20095.00;;;22.10;81.92
7058;BME280;3570;43.080;25.628;2022-08-11T00:21:43;-20087.31;;;21.84;81.88
7058;BME280;3570;43.080;25.628;2022-08-11T00:24:32;-20086.44;;;21.81;83.39
7058;BME280;3570;43.080;25.628;2022-08-11T00:27:16;-20087.47;;;21.84;83.55
7058;BME280;3570;43.080;25.628;2022-08-11T00:30:01;-20080.06;;;21.59;82.87
7058;BME280;3570;43.080;25.628;2022-08-11T00:32:57;-20070.09;;;21.24;83.63
7058;BME280;3570;43.080;25.628;2022-08-11T00:35:43;-20096.28;;;22.15;82.56
7058;BME280;3570;43.080;25.628;2022-08-11T00:38:31;-20103.81;;;22.41;81.03
7058;BME280;3570;43.080;25.628;2022-08-11T00:41:30;-20110.75;;;22.65;78.89
7058;BME280;3570;43.080;25.628;2022-08-11T00:47:47;-20113.66;;;22.75;78.72
7058;BME280;3570;43.080;25.628;2022-08-11T00:57:20;-20102.50;;;22.36;80.32
7058;BME280;3570;43.080;25.628;2022-08-11T01:25:12;-20098.75;;;22.23;79.90
7058;BME280;3570;43.080;25.628;2022-08-11T01:28:41;-20080.50;;;21.60;80.82
7058;BME280;3570;43.080;25.628;2022-08-11T01:45:05;-20107.84;;;22.55;80.09
7058;BME280;3570;43.080;25.628;2022-08-11T01:48:15;-20112.63;;;22.72;78.61
7058;BME280;3570;43.080;25.628;2022-08-11T01:54:46;-20090.50;;;21.95;79.82
7058;BME280;3570;43.080;25.628;2022-08-11T01:58:15;-20078.63;;;21.53;82.92
7058;BME280;3570;43.080;25.628;2022-08-11T02:04:37;-20053.00;;;20.65;87.13
7058;BME280;3570;43.080;25.628;2022-08-11T02:10:26;-20052.56;;;20.63;87.18
7058;BME280;3570;43.080;25.628;2022-08-11T02:14:14;-20047.63;;;20.46;88.90
7058;BME280;3570;43.080;25.628;2022-08-11T02:17:16;-20043.84;;;20.33;93.42
7058;BME280;3570;43.080;25.628;2022-08-11T02:20:10;-20066.03;;;21.10;89.19
7058;BME280;3570;43.080;25.628;2022-08-11T02:23:34;-20085.72;;;21.78;84.73
7058;BME280;3570;43.080;25.628;2022-08-11T02:26:47;-20087.31;;;21.84;85.03
7058;BME280;3570;43.080;25.628;2022-08-11T02:32:55;-20096.88;;;22.17;84.09
7058;BME280;3570;43.080;25.628;2022-08-11T02:36:06;-20096.88;;;22.17;83.53
7058;BME280;3570;43.080;25.628;2022-08-11T02:39:07;-20101.63;;;22.33;82.30
7058;BME280;3570;43.080;25.628;2022-08-11T02:42:22;-20093.25;;;22.04;82.29
7058;BME280;3570;43.080;25.628;2022-08-11T02:45:35;-20097.88;;;22.20;82.13
7058;BME280;3570;43.080;25.628;2022-08-11T02:48:37;-20101.06;;;22.31;82.32
7058;BME280;3570;43.080;25.628;2022-08-11T02:58:00;-20094.41;;;22.08;82.82
7058;BME280;3570;43.080;25.628;2022-08-11T03:00:51;-20087.91;;;21.86;83.76
7058;BME280;3570;43.080;25.628;2022-08-11T03:03:52;-20082.09;;;21.66;84.18
7058;BME280;3570;43.080;25.628;2022-08-11T03:06:49;-20079.06;;;21.55;87.07
7058;BME280;3570;43.080;25.628;2022-08-11T03:12:33;-20081.66;;;21.64;86.88
7058;BME280;3570;43.080;25.628;2022-08-11T03:19:41;-20068.94;;;21.20;89.42
7058;BME280;3570;43.080;25.628;2022-08-11T03:23:28;-20067.75;;;21.16;90.89
7058;BME280;3570;43.080;25.628;2022-08-11T03:29:27;-20083.56;;;21.71;87.98
7058;BME280;3570;43.080;25.628;2022-08-11T03:42:40;-20085.28;;;21.77;85.98
7058;BME280;3570;43.080;25.628;2022-08-11T03:45:34;-20091.22;;;21.97;85.87
7058;BME280;3570;43.080;25.628;2022-08-11T03:51:22;-20095.84;;;22.13;84.92
7058;BME280;3570;43.080;25.628;2022-08-11T03:54:19;-20084.13;;;21.73;85.29
7058;BME280;3570;43.080;25.628;2022-08-11T04:12:45;-20095.28;;;22.11;83.68
7058;BME280;3570;43.080;25.628;2022-08-11T04:28:24;-20093.53;;;22.05;85.58
7058;BME280;3570;43.080;25.628;2022-08-11T04:49:57;-20101.63;;;22.33;83.04
7058;BME280;3570;43.080;25.628;2022-08-11T04:53:12;-20096.44;;;22.15;83.79
7058;BME280;3570;43.080;25.628;2022-08-11T04:56:19;-20096.00;;;22.14;83.60
7058;BME280;3570;43.080;25.628;2022-08-11T05:12:41;-20112.19;;;22.70;80.51
7058;BME280;3570;43.080;25.628;2022-08-11T05:15:35;-20106.28;;;22.50;81.62
7058;BME280;3570;43.080;25.628;2022-08-11T05:18:51;-20092.66;;;22.02;81.84
7058;BME280;3570;43.080;25.628;2022-08-11T05:21:56;-20104.69;;;22.44;81.34
7058;BME280;3570;43.080;25.628;2022-08-11T05:25:06;-20124.06;;;23.11;80.29
7058;BME280;3570;43.080;25.628;2022-08-11T05:28:11;-20116.81;;;22.86;81.18
7058;BME280;3570;43.080;25.628;2022-08-11T05:31:17;-20129.13;;;23.29;80.28
7058;BME280;3570;43.080;25.628;2022-08-11T05:34:28;-20133.47;;;23.44;78.20
7058;BME280;3570;43.080;25.628;2022-08-11T05:37:43;-20114.38;;;22.78;78.84
7058;BME280;3570;43.080;25.628;2022-08-11T05:40:50;-20100.19;;;22.28;79.77
7058;BME280;3570;43.080;25.628;2022-08-11T05:44:00;-20085.56;;;21.78;83.36
7058;BME280;3570;43.080;25.628;2022-08-11T05:47:03;-20096.28;;;22.15;83.37
7058;BME280;3570;43.080;25.628;2022-08-11T05:50:11;-20092.81;;;22.03;83.40
7058;BME280;3570;43.080;25.628;2022-08-11T05:53:14;-20075.31;;;21.42;85.75
7058;BME280;3570;43.080;25.628;2022-08-11T05:56:18;-20068.34;;;21.18;87.16
7058;BME280;3570;43.080;25.628;2022-08-11T05:59:03;-20070.81;;;21.26;89.35
7058;BME280;3570;43.080;25.628;2022-08-11T06:01:48;-20078.78;;;21.54;87.16
7058;BME280;3570;43.080;25.628;2022-08-11T06:04:33;-20095.41;;;22.12;85.49
7058;BME280;3570;43.080;25.628;2022-08-11T06:07:17;-20088.34;;;21.87;83.75
7058;BME280;3570;43.080;25.628;2022-08-11T06:10:09;-20085.28;;;21.77;83.64
7058;BME280;3570;43.080;25.628;2022-08-11T06:12:56;-20086.00;;;21.79;85.94
7058;BME280;3570;43.080;25.628;2022-08-11T06:15:50;-20092.53;;;22.02;83.48
7058;BME280;3570;43.080;25.628;2022-08-11T06:18:36;-20100.78;;;22.30;82.11
7058;BME280;3570;43.080;25.628;2022-08-11T06:21:20;-20124.06;;;23.11;79.28
7058;BME280;3570;43.080;25.628;2022-08-11T06:24:13;-20106.41;;;22.50;79.49
7058;BME280;3570;43.080;25.628;2022-08-11T06:26:59;-20104.97;;;22.45;80.73
7058;BME280;3570;43.080;25.628;2022-08-11T06:29:51;-20113.78;;;22.76;80.04
7058;BME280;3570;43.080;25.628;2022-08-11T06:32:37;-20132.59;;;23.41;77.46
7058;BME280;3570;43.080;25.628;2022-08-11T06:35:28;-20149.94;;;24.01;74.24
7058;BME280;3570;43.080;25.628;2022-08-11T06:41:45;-20152.09;;;24.09;73.56
7058;BME280;3570;43.080;25.628;2022-08-11T06:44:40;-20163.66;;;24.49;71.44
7058;BME280;3570;43.080;25.628;2022-08-11T06:47:26;-20168.13;;;24.65;70.70
7058;BME280;3570;43.080;25.628;2022-08-11T06:50:15;-20170.28;;;24.72;70.97
7058;BME280;3570;43.080;25.628;2022-08-11T06:53:19;-20171.16;;;24.75;69.86
7058;BME280;3570;43.080;25.628;2022-08-11T06:56:05;-20171.00;;;24.75;69.97
7058;BME280;3570;43.080;25.628;2022-08-11T06:59:09;-20186.44;;;25.29;68.24
7058;BME280;3570;43.080;25.628;2022-08-11T07:02:35;-20194.69;;;25.57;66.49
7058;BME280;3570;43.080;25.628;2022-08-11T07:05:23;-20200.31;;;25.77;66.35
7058;BME280;3570;43.080;25.628;2022-08-11T07:22:25;-20215.72;;;26.31;62.80
7058;BME280;3570;43.080;25.628;2022-08-11T07:25:32;-20222.50;;;26.54;62.35
7058;BME280;3570;43.080;25.628;2022-08-11T07:28:46;-20223.66;;;26.58;61.81
7058;BME280;3570;43.080;25.628;2022-08-11T07:32:05;-20228.13;;;26.74;61.08
7058;BME280;3570;43.080;25.628;2022-08-11T07:35:01;-20230.00;;;26.80;61.47
7058;BME280;3570;43.080;25.628;2022-08-11T07:37:56;-20237.06;;;27.05;60.49
7058;BME280;3570;43.080;25.628;2022-08-11T07:40:41;-20236.78;;;27.04;59.02
7058;BME280;3570;43.080;25.628;2022-08-11T07:43:26;-20223.66;;;26.58;60.63
7058;BME280;3570;43.080;25.628;2022-08-11T07:46:11;-20232.72;;;26.90;60.70
7058;BME280;3570;43.080;25.628;2022-08-11T07:49:14;-20246.00;;;27.36;58.94
7058;BME280;3570;43.080;25.628;2022-08-11T07:52:18;-20250.44;;;27.52;58.00
7058;BME280;3570;43.080;25.628;2022-08-11T07:55:16;-20251.47;;;27.55;58.57
7058;BME280;3570;43.080;25.628;2022-08-11T07:58:00;-20254.91;;;27.67;56.85
7058;BME280;3570;43.080;25.628;2022-08-11T08:01:05;-20264.41;;;28.01;56.75
7058;BME280;3570;43.080;25.628;2022-08-11T08:04:11;-20270.59;;;28.22;55.49
7058;BME280;3570;43.080;25.628;2022-08-11T08:07:19;-20277.78;;;28.47;54.59
7058;BME280;3570;43.080;25.628;2022-08-11T08:10:22;-20270.16;;;28.21;54.28
7058;BME280;3570;43.080;25.628;2022-08-11T08:13:26;-20265.13;;;28.03;56.15
7058;BME280;3570;43.080;25.628;2022-08-11T08:16:29;-20265.69;;;28.05;55.52
7058;BME280;3570;43.080;25.628;2022-08-11T08:19:32;-20273.19;;;28.31;55.68
7058;BME280;3570;43.080;25.628;2022-08-11T08:22:19;-20272.63;;;28.29;54.16
7058;BME280;3570;43.080;25.628;2022-08-11T08:25:04;-20276.50;;;28.43;54.44
7058;BME280;3570;43.080;25.628;2022-08-11T08:27:51;-20287.00;;;28.79;53.09
7058;BME280;3570;43.080;25.628;2022-08-11T08:30:36;-20289.28;;;28.88;51.94
7058;BME280;3570;43.080;25.628;2022-08-11T08:33:39;-20298.78;;;29.21;51.10
7058;BME280;3570;43.080;25.628;2022-08-11T08:36:25;-20296.34;;;29.12;50.14
7058;BME280;3570;43.080;25.628;2022-08-11T08:39:10;-20305.97;;;29.46;50.52
7058;BME280;3570;43.080;25.628;2022-08-11T08:41:58;-20312.56;;;29.69;49.00
7058;BME280;3570;43.080;25.628;2022-08-11T08:44:46;-20314.88;;;29.77;48.46
7058;BME280;3570;43.080;25.628;2022-08-11T08:47:57;-20304.38;;;29.40;49.24
7058;BME280;3570;43.080;25.628;2022-08-11T08:50:48;-20310.13;;;29.60;50.00
7058;BME280;3570;43.080;25.628;2022-08-11T08:53:53;-20331.97;;;30.37;47.29
7058;BME280;3570;43.080;25.628;2022-08-11T08:56:39;-20322.47;;;30.04;46.47
7058;BME280;3570;43.080;25.628;2022-08-11T08:59:25;-20286.84;;;28.79;50.64
7058;BME280;3570;43.080;25.628;2022-08-11T09:02:10;-20287.56;;;28.82;51.29
7058;BME280;3570;43.080;25.628;2022-08-11T09:04:56;-20302.22;;;29.33;51.68
7058;BME280;3570;43.080;25.628;2022-08-11T09:07:41;-20304.81;;;29.42;50.80
7058;BME280;3570;43.080;25.628;2022-08-11T09:10:30;-20298.06;;;29.18;51.64
7058;BME280;3570;43.080;25.628;2022-08-11T09:13:15;-20300.06;;;29.25;49.55
7058;BME280;3570;43.080;25.628;2022-08-11T09:16:01;-20288.13;;;28.84;50.28
7058;BME280;3570;43.080;25.628;2022-08-11T09:18:45;-20293.03;;;29.01;51.37
7058;BME280;3570;43.080;25.628;2022-08-11T09:21:30;-20306.81;;;29.49;50.35
7058;BME280;3570;43.080;25.628;2022-08-11T09:24:16;-20320.31;;;29.96;48.42
7058;BME280;3570;43.080;25.628;2022-08-11T09:27:20;-20319.91;;;29.95;47.76
7058;BME280;3570;43.080;25.628;2022-08-11T09:30:06;-20339.28;;;30.63;46.45
7058;BME280;3570;43.080;25.628;2022-08-11T09:32:56;-20348.47;;;30.95;45.54
7058;BME280;3570;43.080;25.628;2022-08-11T09:35:43;-20326.50;;;30.18;46.13
7058;BME280;3570;43.080;25.628;2022-08-11T09:38:29;-20332.38;;;30.38;47.31
7058;BME280;3570;43.080;25.628;2022-08-11T09:41:32;-20355.91;;;31.21;44.40
7058;BME280;3570;43.080;25.628;2022-08-11T09:44:18;-20421.22;;;33.50;39.42
7058;BME280;3570;43.080;25.628;2022-08-11T09:47:25;-20422.81;;;33.56;38.12
7058;BME280;3570;43.080;25.628;2022-08-11T09:50:13;-20409.22;;;33.08;39.29
7058;BME280;3570;43.080;25.628;2022-08-11T09:52:59;-20406.06;;;32.97;39.48
7058;BME280;3570;43.080;25.628;2022-08-11T09:55:49;-20388.03;;;32.33;40.17
7058;BME280;3570;43.080;25.628;2022-08-11T09:58:34;-20422.66;;;33.55;38.19
7058;BME280;3570;43.080;25.628;2022-08-11T10:01:21;-20433.81;;;33.94;37.46
7058;BME280;3570;43.080;25.628;2022-08-11T10:04:18;-20416.94;;;33.35;36.92
7058;BME280;3570;43.080;25.628;2022-08-11T10:07:05;-20423.81;;;33.59;37.44
7058;BME280;3570;43.080;25.628;2022-08-11T10:09:58;-20472.94;;;35.32;34.47
7058;BME280;3570;43.080;25.628;2022-08-11T10:12:48;-20503.47;;;36.40;32.03
7058;BME280;3570;43.080;25.628;2022-08-11T10:15:35;-20500.06;;;36.28;32.37
7058;BME280;3570;43.080;25.628;2022-08-11T10:18:33;-20510.63;;;36.65;31.91
7058;BME280;3570;43.080;25.628;2022-08-11T10:21:44;-20513.19;;;36.74;31.74
7058;BME280;3570;43.080;25.628;2022-08-11T10:24:51;-20435.81;;;34.01;35.24
7058;BME280;3570;43.080;25.628;2022-08-11T10:28:14;-20390.59;;;32.42;38.77
7058;BME280;3570;43.080;25.628;2022-08-11T10:30:59;-20344.88;;;30.82;40.72
7058;BME280;3570;43.080;25.628;2022-08-11T10:34:02;-20328.06;;;30.23;42.56
7058;BME280;3570;43.080;25.628;2022-08-11T10:36:46;-20346.16;;;30.87;41.88
7058;BME280;3570;43.080;25.628;2022-08-11T10:39:31;-20385.44;;;32.24;38.78
7058;BME280;3570;43.080;25.628;2022-08-11T10:42:16;-20369.69;;;31.69;39.06
7058;BME280;3570;43.080;25.628;2022-08-11T10:45:20;-20362.38;;;31.43;40.91
7058;BME280;3570;43.080;25.628;2022-08-11T10:48:25;-20318.59;;;29.90;43.37
7058;BME280;3570;43.080;25.628;2022-08-11T10:51:09;-20343.88;;;30.79;42.17
7058;BME280;3570;43.080;25.628;2022-08-11T10:53:56;-20379.84;;;32.05;39.67
7058;BME280;3570;43.080;25.628;2022-08-11T10:57:00;-20409.91;;;33.10;37.81
7058;BME280;3570;43.080;25.628;2022-08-11T11:00:05;-20420.09;;;33.46;37.34
7058;BME280;3570;43.080;25.628;2022-08-11T11:02:50;-20416.94;;;33.35;37.30
7058;BME280;3570;43.080;25.628;2022-08-11T11:05:37;-20424.38;;;33.61;36.64
7058;BME280;3570;43.080;25.628;2022-08-11T11:08:27;-20443.53;;;34.29;35.55
7058;BME280;3570;43.080;25.628;2022-08-11T11:11:35;-20408.06;;;33.04;36.64
7058;BME280;3570;43.080;25.628;2022-08-11T11:14:40;-20360.22;;;31.36;40.54
7058;BME280;3570;43.080;25.628;2022-08-11T11:17:47;-20377.28;;;31.96;39.11
7058;BME280;3570;43.080;25.628;2022-08-11T11:20:55;-20388.16;;;32.34;38.72
7058;BME280;3570;43.080;25.628;2022-08-11T11:26:36;-20429.94;;;33.81;35.73
7058;BME280;3570;43.080;25.628;2022-08-11T11:36:00;-20405.06;;;32.93;37.90
7058;BME280;3570;43.080;25.628;2022-08-11T11:38:52;-20391.75;;;32.47;38.34
7058;BME280;3570;43.080;25.628;2022-08-11T11:41:40;-20391.16;;;32.45;38.38
7058;BME280;3570;43.080;25.628;2022-08-11T11:44:25;-20382.16;;;32.13;39.55
7058;BME280;3570;43.080;25.628;2022-08-11T11:47:11;-20383.44;;;32.17;38.44
7058;BME280;3570;43.080;25.628;2022-08-11T11:49:56;-20380.00;;;32.05;36.97
7058;BME280;3570;43.080;25.628;2022-08-11T11:52:41;-20389.16;;;32.37;37.09
7058;BME280;3570;43.080;25.628;2022-08-11T11:55:27;-20392.59;;;32.50;38.06
7058;BME280;3570;43.080;25.628;2022-08-11T11:58:12;-20386.59;;;32.28;37.42
7058;BME280;3570;43.080;25.628;2022-08-11T12:01:15;-20344.88;;;30.82;40.01
7058;BME280;3570;43.080;25.628;2022-08-11T12:04:02;-20361.09;;;31.39;40.10
7058;BME280;3570;43.080;25.628;2022-08-11T12:06:49;-20373.69;;;31.83;39.69
7058;BME280;3570;43.080;25.628;2022-08-11T12:09:35;-20381.84;;;32.12;38.72
7058;BME280;3570;43.080;25.628;2022-08-11T12:12:20;-20383.00;;;32.16;38.68
7058;BME280;3570;43.080;25.628;2022-08-11T12:15:24;-20380.44;;;32.07;39.11
7058;BME280;3570;43.080;25.628;2022-08-11T12:18:09;-20387.59;;;32.32;38.17
7058;BME280;3570;43.080;25.628;2022-08-11T12:20:54;-20390.16;;;32.41;38.51
7058;BME280;3570;43.080;25.628;2022-08-11T12:23:38;-20388.31;;;32.34;38.62
7058;BME280;3570;43.080;25.628;2022-08-11T12:26:42;-20381.44;;;32.10;39.40
7058;BME280;3570;43.080;25.628;2022-08-11T12:29:32;-20383.00;;;32.16;39.16
7058;BME280;3570;43.080;25.628;2022-08-11T12:32:19;-20379.00;;;32.02;39.70
7058;BME280;3570;43.080;25.628;2022-08-11T12:35:04;-20377.28;;;31.96;39.43
7058;BME280;3570;43.080;25.628;2022-08-11T12:37:51;-20375.28;;;31.89;40.20
7058;BME280;3570;43.080;25.628;2022-08-11T12:40:46;-20365.09;;;31.53;39.00
7058;BME280;3570;43.080;25.628;2022-08-11T12:43:50;-20366.81;;;31.59;40.27
7058;BME280;3570;43.080;25.628;2022-08-11T12:46:53;-20356.19;;;31.22;40.46
7058;BME280;3570;43.080;25.628;2022-08-11T12:49:43;-20355.34;;;31.19;40.47
7058;BME280;3570;43.080;25.628;2022-08-11T12:52:49;-20351.59;;;31.06;40.95
7058;BME280;3570;43.080;25.628;2022-08-11T12:55:38;-20363.38;;;31.47;40.88
7058;BME280;3570;43.080;25.628;2022-08-11T12:58:43;-20363.22;;;31.46;39.58
7058;BME280;3570;43.080;25.628;2022-08-11T13:01:28;-20369.97;;;31.70;39.80
7058;BME280;3570;43.080;25.628;2022-08-11T13:04:30;-20386.00;;;32.26;39.04
7058;BME280;3570;43.080;25.628;2022-08-11T13:07:34;-20376.13;;;31.92;38.35
7058;BME280;3570;43.080;25.628;2022-08-11T13:10:20;-20378.72;;;32.01;39.16
7058;BME280;3570;43.080;25.628;2022-08-11T13:13:24;-20384.28;;;32.20;38.18
7058;BME280;3570;43.080;25.628;2022-08-11T13:16:09;-20370.53;;;31.72;38.28
7058;BME280;3570;43.080;25.628;2022-08-11T13:18:55;-20382.72;;;32.15;38.95
7058;BME280;3570;43.080;25.628;2022-08-11T13:21:40;-20378.44;;;32.00;38.70
7058;BME280;3570;43.080;25.628;2022-08-11T13:24:24;-20375.13;;;31.88;39.26
7058;BME280;3570;43.080;25.628;2022-08-11T13:27:09;-20378.44;;;32.00;39.93
7058;BME280;3570;43.080;25.628;2022-08-11T13:29:55;-20382.16;;;32.13;38.29
7058;BME280;3570;43.080;25.628;2022-08-11T13:32:59;-20390.44;;;32.42;38.41
7058;BME280;3570;43.080;25.628;2022-08-11T13:35:45;-20384.72;;;32.22;39.32
7058;BME280;3570;43.080;25.628;2022-08-11T13:38:32;-20396.91;;;32.65;37.33
7058;BME280;3570;43.080;25.628;2022-08-11T13:41:17;-20397.47;;;32.67;37.62
7058;BME280;3570;43.080;25.628;2022-08-11T13:44:20;-20402.47;;;32.84;36.50
7058;BME280;3570;43.080;25.628;2022-08-11T13:47:06;-20467.38;;;35.13;33.73
7058;BME280;3570;43.080;25.628;2022-08-11T13:49:52;-20552.75;;;38.14;28.42
7058;BME280;3570;43.080;25.628;2022-08-11T13:52:37;-20556.88;;;38.28;28.79
7058;BME280;3570;43.080;25.628;2022-08-11T13:55:24;-20602.78;;;39.91;26.42
7058;BME280;3570;43.080;25.628;2022-08-11T13:58:12;-20672.38;;;42.38;23.47
7058;BME280;3570;43.080;25.628;2022-08-11T14:00:57;-20694.44;;;43.16;22.99
7058;BME280;3570;43.080;25.628;2022-08-11T14:03:43;-20741.75;;;44.85;20.79
7058;BME280;3570;43.080;25.628;2022-08-11T14:06:29;-20713.94;;;43.85;21.38
7058;BME280;3570;43.080;25.628;2022-08-11T14:09:15;-20733.56;;;44.55;20.57
7058;BME280;3570;43.080;25.628;2022-08-11T14:12:26;-20739.47;;;44.77;20.91
7058;BME280;3570;43.080;25.628;2022-08-11T14:15:33;-20713.09;;;43.82;21.33
7058;BME280;3570;43.080;25.628;2022-08-11T14:18:21;-20701.50;;;43.41;21.63
7058;BME280;3570;43.080;25.628;2022-08-11T14:21:06;-20691.75;;;43.07;22.14
7058;BME280;3570;43.080;25.628;2022-08-11T14:24:15;-20681.44;;;42.70;22.11
7058;BME280;3570;43.080;25.628;2022-08-11T14:27:01;-20692.03;;;43.08;21.72
7058;BME280;3570;43.080;25.628;2022-08-11T14:29:45;-20700.09;;;43.36;21.30
7058;BME280;3570;43.080;25.628;2022-08-11T14:32:30;-20691.47;;;43.06;21.67
7058;BME280;3570;43.080;25.628;2022-08-11T14:35:15;-20689.06;;;42.97;21.06
7058;BME280;3570;43.080;25.628;2022-08-11T14:38:00;-20701.38;;;43.41;21.32
7058;BME280;3570;43.080;25.628;2022-08-11T14:40:46;-20703.34;;;43.48;21.02
7058;BME280;3570;43.080;25.628;2022-08-11T14:43:52;-20704.75;;;43.53;20.52
7058;BME280;3570;43.080;25.628;2022-08-11T14:46:57;-20697.13;;;43.26;21.11
7058;BME280;3570;43.080;25.628;2022-08-11T14:49:52;-20703.06;;;43.47;20.81
7058;BME280;3570;43.080;25.628;2022-08-11T14:52:48;-20679.16;;;42.62;21.25
7058;BME280;3570;43.080;25.628;2022-08-11T14:55:38;-20668.56;;;42.24;21.99
7058;BME280;3570;43.080;25.628;2022-08-11T14:58:43;-20667.28;;;42.20;21.68
7058;BME280;3570;43.080;25.628;2022-08-11T15:01:27;-20685.81;;;42.85;21.34
7058;BME280;3570;43.080;25.628;2022-08-11T15:04:30;-20694.56;;;43.17;21.41
7058;BME280;3570;43.080;25.628;2022-08-11T15:07:15;-20698.41;;;43.30;21.31
7058;BME280;3570;43.080;25.628;2022-08-11T15:10:02;-20718.31;;;44.01;20.36
7058;BME280;3570;43.080;25.628;2022-08-11T15:12:47;-20711.53;;;43.77;20.85
7058;BME280;3570;43.080;25.628;2022-08-11T15:15:32;-20699.25;;;43.33;20.77
7058;BME280;3570;43.080;25.628;2022-08-11T15:18:36;-20696.69;;;43.24;21.33
7058;BME280;3570;43.080;25.628;2022-08-11T15:21:21;-20677.31;;;42.55;21.20
7058;BME280;3570;43.080;25.628;2022-08-11T15:24:24;-20639.09;;;41.19;22.84
7058;BME280;3570;43.080;25.628;2022-08-11T15:27:11;-20648.72;;;41.54;22.59
7058;BME280;3570;43.080;25.628;2022-08-11T15:30:15;-20673.38;;;42.41;21.40
7058;BME280;3570;43.080;25.628;2022-08-11T15:33:19;-20638.53;;;41.17;22.49
7058;BME280;3570;43.080;25.628;2022-08-11T15:36:22;-20635.13;;;41.05;22.44
7058;BME280;3570;43.080;25.628;2022-08-11T15:39:31;-20646.75;;;41.47;22.74
7058;BME280;3570;43.080;25.628;2022-08-11T15:42:18;-20620.38;;;40.53;23.54
7058;BME280;3570;43.080;25.628;2022-08-11T15:45:21;-20632.00;;;40.94;23.39
7058;BME280;3570;43.080;25.628;2022-08-11T15:51:29;-20603.50;;;39.93;23.86
7058;BME280;3570;43.080;25.628;2022-08-11T15:54:17;-20612.28;;;40.24;24.00
7058;BME280;3570;43.080;25.628;2022-08-11T15:57:03;-20641.09;;;41.27;23.43
7058;BME280;3570;43.080;25.628;2022-08-11T15:59:48;-20620.81;;;40.55;23.59
7058;BME280;3570;43.080;25.628;2022-08-11T16:02:51;-20623.06;;;40.63;23.60
7058;BME280;3570;43.080;25.628;2022-08-11T16:05:41;-20625.06;;;40.70;23.70
7058;BME280;3570;43.080;25.628;2022-08-11T16:08:27;-20604.22;;;39.96;24.16
7058;BME280;3570;43.080;25.628;2022-08-11T16:11:12;-20593.41;;;39.58;24.94
7058;BME280;3570;43.080;25.628;2022-08-11T16:13:57;-20584.75;;;39.27;25.14
7058;BME280;3570;43.080;25.628;2022-08-11T16:17:04;-20592.00;;;39.53;24.53
7058;BME280;3570;43.080;25.628;2022-08-11T16:19:51;-20574.22;;;38.90;24.87
7058;BME280;3570;43.080;25.628;2022-08-11T16:22:37;-20568.13;;;38.68;25.23
7058;BME280;3570;43.080;25.628;2022-08-11T16:25:25;-20548.50;;;37.99;25.91
7058;BME280;3570;43.080;25.628;2022-08-11T16:28:11;-20540.94;;;37.72;26.22
7058;BME280;3570;43.080;25.628;2022-08-11T16:30:56;-20517.16;;;36.88;27.56
7058;BME280;3570;43.080;25.628;2022-08-11T16:33:41;-20514.31;;;36.78;28.57
7058;BME280;3570;43.080;25.628;2022-08-11T16:36:26;-20504.34;;;36.43;27.87
7058;BME280;3570;43.080;25.628;2022-08-11T16:39:30;-20490.38;;;35.93;28.76
7058;BME280;3570;43.080;25.628;2022-08-11T16:42:14;-20488.50;;;35.87;28.83
7058;BME280;3570;43.080;25.628;2022-08-11T16:45:18;-20474.38;;;35.37;29.83
7058;BME280;3570;43.080;25.628;2022-08-11T16:48:22;-20455.09;;;34.69;31.32
7058;BME280;3570;43.080;25.628;2022-08-11T16:51:10;-20418.38;;;33.40;31.93
7058;BME280;3570;43.080;25.628;2022-08-11T16:53:54;-20382.88;;;32.15;34.65
7058;BME280;3570;43.080;25.628;2022-08-11T16:56:53;-20349.75;;;30.99;37.22
7058;BME280;3570;43.080;25.628;2022-08-11T16:59:38;-20322.91;;;30.05;40.07
7058;BME280;3570;43.080;25.628;2022-08-11T17:02:24;-20298.19;;;29.19;40.77
7058;BME280;3570;43.080;25.628;2022-08-11T17:05:33;-20278.34;;;28.49;44.61
7058;BME280;3570;43.080;25.628;2022-08-11T17:08:48;-20260.09;;;27.85;45.49
7058;BME280;3570;43.080;25.628;2022-08-11T17:11:55;-20249.00;;;27.47;48.72
7058;BME280;3570;43.080;25.628;2022-08-11T17:15:00;-20242.38;;;27.24;49.07
7058;BME280;3570;43.080;25.628;2022-08-11T17:17:46;-20236.78;;;27.04;49.83
7058;BME280;3570;43.080;25.628;2022-08-11T17:20:31;-20230.88;;;26.83;51.67
7058;BME280;3570;43.080;25.628;2022-08-11T17:23:16;-20227.97;;;26.73;52.69
7058;BME280;3570;43.080;25.628;2022-08-11T17:26:28;-20223.94;;;26.59;53.55
7058;BME280;3570;43.080;25.628;2022-08-11T17:35:39;-20202.19;;;25.83;54.09
7058;BME280;3570;43.080;25.628;2022-08-11T17:38:25;-20202.19;;;25.83;56.28
7058;BME280;3570;43.080;25.628;2022-08-11T17:41:11;-20200.72;;;25.78;55.35
7058;BME280;3570;43.080;25.628;2022-08-11T17:44:15;-20194.25;;;25.56;56.53
7058;BME280;3570;43.080;25.628;2022-08-11T17:47:18;-20187.03;;;25.31;58.57
7058;BME280;3570;43.080;25.628;2022-08-11T17:50:21;-20182.41;;;25.14;59.12
7058;BME280;3570;43.080;25.628;2022-08-11T17:53:06;-20176.63;;;24.94;59.99
7058;BME280;3570;43.080;25.628;2022-08-11T17:56:10;-20175.63;;;24.91;61.25
7058;BME280;3570;43.080;25.628;2022-08-11T17:59:15;-20169.00;;;24.68;62.34
7058;BME280;3570;43.080;25.628;2022-08-11T18:02:23;-20179.25;;;25.03;61.47
7058;BME280;3570;43.080;25.628;2022-08-11T18:05:32;-20172.75;;;24.81;61.04
7058;BME280;3570;43.080;25.628;2022-08-11T18:08:18;-20170.00;;;24.71;63.02
7058;BME280;3570;43.080;25.628;2022-08-11T18:11:23;-20163.66;;;24.49;63.16
7058;BME280;3570;43.080;25.628;2022-08-11T18:14:28;-20165.66;;;24.56;64.10
7058;BME280;3570;43.080;25.628;2022-08-11T18:17:33;-20172.31;;;24.79;62.34
7058;BME280;3570;43.080;25.628;2022-08-11T18:20:37;-20172.59;;;24.80;63.15
7058;BME280;3570;43.080;25.628;2022-08-11T18:23:40;-20167.53;;;24.63;62.73
7058;BME280;3570;43.080;25.628;2022-08-11T18:26:44;-20165.09;;;24.54;64.61
7058;BME280;3570;43.080;25.628;2022-08-11T18:29:49;-20176.34;;;24.93;64.26
7058;BME280;3570;43.080;25.628;2022-08-11T18:32:57;-20177.38;;;24.97;63.33
7058;BME280;3570;43.080;25.628;2022-08-11T18:36:02;-20180.41;;;25.07;63.53